Time;durP1;ratioP1;P1;durP2;ratioP2;P2;SDS_P1;SDS_P2;PMS_P1;PMS_P2;Temp;Humidity;BMP_temperature;BMP_pressure;BME280_temperature;BME280_humidity;BME280_pressure;Samples;Min_cycle;Max_cycle;Signal;HPM_P1;HPM_P2
2022/11/14 00:01:08;;;;;;;25.20;16.20;;;6.10;99.90;;;;;;20898820;28;20213;-75
2022/11/14 00:11:09;;;;;;;28.00;16.40;;;6.00;99.90;;;;;;20898106;28;20241;-76
2022/11/14 00:21:11;;;;;;;79.93;18.90;;;6.00;99.90;;;;;;20897557;28;20213;-76
2022/11/14 00:31:13;;;;;;;53.43;18.20;;;5.80;99.90;;;;;;20848154;28;20216;-77
2022/11/14 00:41:14;;;;;;;30.93;16.40;;;5.80;99.90;;;;;;20841545;28;20208;-78
2022/11/14 00:51:16;;;;;;;37.57;16.30;;;5.80;99.90;;;;;;20840153;28;20676;-76
2022/11/14 01:01:18;;;;;;;30.10;15.60;;;5.70;99.90;;;;;;20839481;28;20672;-78
2022/11/14 01:11:21;;;;;;;27.30;15.17;;;5.70;99.90;;;;;;20839838;28;20252;-76
2022/11/14 01:21:23;;;;;;;26.57;15.80;;;5.60;99.90;;;;;;20839768;28;20248;-77
2022/11/14 01:31:25;;;;;;;35.27;15.10;;;5.60;99.90;;;;;;20834022;28;20233;-76
2022/11/14 01:41:26;;;;;;;134.30;17.60;;;5.40;99.90;;;;;;20835587;28;20207;-76
2022/11/14 01:51:36;;;;;;;21.90;13.90;;;5.20;99.90;;;;;;20835260;28;20684;-76
2022/11/14 02:01:46;;;;;;;24.77;14.30;;;5.30;99.90;;;;;;20834763;28;20664;-77
2022/11/14 02:11:49;;;;;;;20.17;13.03;;;5.30;99.90;;;;;;20833943;28;20232;-77
2022/11/14 02:21:51;;;;;;;94.27;16.13;;;5.20;99.90;;;;;;20832309;28;20205;-77
2022/11/14 02:31:53;;;;;;;23.03;13.97;;;5.10;99.90;;;;;;20831176;28;20228;-77
2022/11/14 02:41:55;;;;;;;20.47;13.73;;;;;;;;;;20831556;28;20204;-77
2022/11/14 02:51:57;;;;;;;23.57;14.03;;;5.10;99.90;;;;;;20831231;28;20268;-77
2022/11/14 03:01:59;;;;;;;41.50;15.63;;;;;;;;;;20830660;28;20231;-76
2022/11/14 03:12:00;;;;;;;100.27;16.40;;;5.30;99.90;;;;;;20829823;28;20229;-77
2022/11/14 03:22:02;;;;;;;29.80;14.03;;;5.10;99.90;;;;;;20829462;28;20244;-77
2022/11/14 03:32:04;;;;;;;120.30;16.00;;;5.00;99.90;;;;;;20826336;28;20232;-77
2022/11/14 03:42:06;;;;;;;59.43;14.40;;;4.90;99.90;;;;;;20830084;28;20208;-77
2022/11/14 03:52:07;;;;;;;29.77;13.43;;;4.90;99.90;;;;;;20828932;28;20236;-77
2022/11/14 04:02:09;;;;;;;20.20;12.67;;;4.80;99.90;;;;;;20835096;28;20217;-75
2022/11/14 04:12:11;;;;;;;23.13;13.57;;;4.80;99.90;;;;;;20843118;28;20240;-77
2022/11/14 04:22:16;;;;;;;19.60;12.40;;;4.90;99.90;;;;;;20842775;28;20205;-77
2022/11/14 04:32:18;;;;;;;19.63;11.83;;;5.00;99.90;;;;;;20841373;28;20703;-77
2022/11/14 04:42:19;;;;;;;19.47;11.63;;;5.10;99.90;;;;;;20840917;28;20232;-76
2022/11/14 04:52:21;;;;;;;19.03;11.73;;;5.30;99.90;;;;;;20840698;28;20599;-76
2022/11/14 05:02:23;;;;;;;20.00;12.73;;;5.60;99.90;;;;;;20839977;28;20220;-75
2022/11/14 05:12:24;;;;;;;19.57;12.77;;;5.60;99.90;;;;;;20845142;28;20240;-76
2022/11/14 05:22:26;;;;;;;19.43;12.30;;;5.70;99.90;;;;;;20848772;28;20205;-74
2022/11/14 05:38:02;;;;;;;25.40;14.73;;;6.00;99.90;;;;;;21282566;27;1205878;-76
2022/11/14 05:48:04;;;;;;;26.27;14.77;;;6.20;99.90;;;;;;21208661;28;20198;-73
2022/11/14 05:58:06;;;;;;;24.83;16.03;;;6.40;99.90;;;;;;21144140;28;20211;-74
2022/11/14 06:08:08;;;;;;;24.77;15.37;;;6.50;99.90;;;;;;21148092;28;20726;-75
2022/11/14 06:18:09;;;;;;;23.93;15.47;;;6.60;99.90;;;;;;21148564;28;20208;-74
2022/11/14 06:28:11;;;;;;;27.20;16.37;;;6.80;99.90;;;;;;21147303;28;20654;-75
2022/11/14 06:38:13;;;;;;;25.13;16.77;;;6.90;99.90;;;;;;21185034;28;20259;-74
2022/11/14 06:48:14;;;;;;;22.63;15.57;;;7.00;99.90;;;;;;21181086;28;20562;-74
2022/11/14 06:58:16;;;;;;;29.67;17.00;;;6.70;99.90;;;;;;21173352;28;20217;-72
2022/11/14 07:08:17;;;;;;;27.03;15.23;;;7.20;99.90;;;;;;21173105;28;20204;-73
2022/11/14 07:18:22;;;;;;;27.97;16.13;;;7.30;99.90;;;;;;21172058;28;20211;-78
2022/11/14 07:28:23;;;;;;;30.10;16.73;;;7.40;99.90;;;;;;21170860;28;20609;-79
2022/11/14 07:38:25;;;;;;;26.30;16.40;;;7.50;99.90;;;;;;21170114;28;20216;-76
2022/11/14 07:48:28;;;;;;;32.03;17.43;;;7.60;99.90;;;;;;21145101;28;20267;-80
2022/11/14 07:58:31;;;;;;;26.70;16.70;;;7.70;99.90;;;;;;21082198;28;20558;-78
2022/11/14 08:08:33;;;;;;;23.50;14.90;;;7.90;99.90;;;;;;21084118;28;20272;-79
2022/11/14 08:18:35;;;;;;;23.13;14.87;;;8.00;99.90;;;;;;21082529;28;20209;-78
2022/11/14 08:28:36;;;;;;;22.20;14.17;;;8.00;99.90;;;;;;21081809;28;20246;-79
2022/11/14 08:38:38;;;;;;;22.50;14.43;;;8.10;99.90;;;;;;21080156;28;20207;-75
2022/11/14 08:48:40;;;;;;;25.90;16.43;;;8.20;99.90;;;;;;21080569;28;20237;-77
2022/11/14 08:58:41;;;;;;;23.70;15.63;;;8.30;99.90;;;;;;21085170;28;20212;-77
2022/11/14 09:08:43;;;;;;;20.23;13.53;;;8.40;99.90;;;;;;21092148;28;20586;-78
2022/11/14 09:18:45;;;;;;;28.10;14.80;;;8.40;99.90;;;;;;21083879;28;20236;-74
2022/11/14 09:28:46;;;;;;;23.33;15.63;;;8.50;99.90;;;;;;21077825;28;20298;-77
2022/11/14 09:38:50;;;;;;;24.07;15.87;;;8.70;99.90;;;;;;21077991;28;20198;-74
2022/11/14 09:48:52;;;;;;;18.80;13.50;;;8.80;99.90;;;;;;21076755;28;20288;-76
2022/11/14 09:58:55;;;;;;;18.43;12.60;;;9.00;99.90;;;;;;21073571;28;20242;-74
2022/11/14 10:09:22;;;;;;;18.27;12.00;;;9.20;99.90;;;;;;21076718;28;20227;-77
2022/11/14 10:19:36;;;;;;;20.67;13.97;;;9.40;99.90;;;;;;21083278;28;20238;-77
2022/11/14 10:29:49;;;;;;;22.57;16.73;;;9.50;99.90;;;;;;21090903;28;20252;-77
2022/11/14 10:39:54;;;;;;;22.77;16.63;;;9.70;99.90;;;;;;21091419;28;20666;-78
2022/11/14 10:50:03;;;;;;;13.53;10.10;;;10.10;99.90;;;;;;21090937;28;20278;-78
2022/11/14 11:00:12;;;;;;;13.33;9.97;;;10.20;99.90;;;;;;21089108;28;20212;-78
2022/11/14 11:20:43;;;;;;;11.63;9.17;;;10.90;98.80;;;;;;21087692;28;20213;-78
2022/11/14 11:31:17;;;;;;;15.23;11.37;;;11.20;98.70;;;;;;21086058;28;20284;-79
2022/11/14 11:41:19;;;;;;;15.73;9.87;;;11.40;98.10;;;;;;21040828;28;20576;-79
2022/11/14 11:51:44;;;;;;;12.93;9.60;;;11.50;97.90;;;;;;21085208;28;20748;-77
2022/11/14 12:01:46;;;;;;;16.40;10.57;;;11.30;97.70;;;;;;21081258;28;20254;-77
2022/11/14 12:12:17;;;;;;;15.20;10.27;;;11.10;97.60;;;;;;21083227;28;20234;-79
2022/11/14 12:22:38;;;;;;;15.13;10.37;;;11.00;97.50;;;;;;21046197;28;20213;-78
2022/11/14 12:32:47;;;;;;;13.97;9.87;;;11.00;97.60;;;;;;21080976;28;20248;-79
2022/11/14 12:42:49;;;;;;;13.57;9.73;;;11.00;97.70;;;;;;21080715;28;20220;-78
2022/11/14 12:52:53;;;;;;;15.43;9.90;;;11.00;98.00;;;;;;21080583;28;20233;-78
2022/11/14 13:03:20;;;;;;;13.67;9.90;;;11.00;97.90;;;;;;21080915;28;20214;-77
2022/11/14 13:23:42;;;;;;;13.20;9.27;;;11.20;98.30;;;;;;21080171;28;20203;-78
2022/11/14 13:33:52;;;;;;;14.63;9.27;;;11.40;98.20;;;;;;21077391;28;20612;-79
2022/11/14 13:44:03;;;;;;;12.50;8.70;;;11.70;98.10;;;;;;21077379;28;20202;-78
2022/11/14 13:54:16;;;;;;;11.53;8.97;;;11.90;98.10;;;;;;21083090;28;20287;-78
2022/11/14 14:04:28;;;;;;;10.13;7.83;;;12.10;98.20;;;;;;21092072;28;20216;-79
2022/11/14 14:14:54;;;;;;;11.13;8.03;;;12.20;98.20;;;;;;21100728;28;20252;-78
2022/11/14 14:25:11;;;;;;;13.47;8.50;;;12.20;98.30;;;;;;21173398;28;20254;-79
2022/11/14 14:35:21;;;;;;;12.37;9.33;;;12.00;98.20;;;;;;21171729;28;20575;-75
2022/11/14 14:45:24;;;;;;;12.80;8.53;;;12.10;98.30;;;;;;21174086;28;20231;-74
2022/11/14 14:55:31;;;;;;;14.43;9.30;;;12.10;98.20;;;;;;21173348;28;20238;-74
2022/11/14 15:05:32;;;;;;;17.90;10.40;;;11.90;98.40;;;;;;21174108;28;20228;-74
2022/11/14 15:15:34;;;;;;;20.97;12.33;;;11.60;98.60;;;;;;21172191;28;20280;-74
2022/11/14 15:25:36;;;;;;;19.63;12.93;;;11.60;98.60;;;;;;21171631;27;20209;-74
2022/11/14 15:35:39;;;;;;;20.33;11.53;;;11.10;99.10;;;;;;21170955;28;20591;-75
2022/11/14 15:45:41;;;;;;;19.03;13.57;;;10.90;99.30;;;;;;21170067;28;20209;-74
2022/11/14 15:55:42;;;;;;;26.73;15.20;;;10.80;99.80;;;;;;21107738;28;20224;-74
2022/11/14 16:05:47;;;;;;;21.20;13.10;;;10.60;99.90;;;;;;21083972;28;20227;-74
2022/11/14 16:15:49;;;;;;;21.70;13.20;;;10.50;99.90;;;;;;21106042;28;20700;-72
2022/11/14 16:25:51;;;;;;;22.97;12.17;;;10.40;99.90;;;;;;21080133;28;20207;-70
2022/11/14 16:35:53;;;;;;;19.73;12.87;;;10.40;99.90;;;;;;21081874;28;20246;-72
2022/11/14 16:45:54;;;;;;;19.03;12.80;;;10.40;99.90;;;;;;21079634;28;20200;-74
2022/11/14 16:55:56;;;;;;;27.37;14.47;;;10.40;99.90;;;;;;21080265;28;20237;-70
2022/11/14 17:05:58;;;;;;;39.30;23.00;;;10.40;99.90;;;;;;21080910;28;20207;-70
2022/11/14 17:16:00;;;;;;;27.30;16.33;;;10.40;99.90;;;;;;21085650;28;20235;-78
2022/11/14 17:26:07;;;;;;;31.63;14.90;;;10.40;99.90;;;;;;21079711;28;20209;-78
2022/11/14 17:36:10;;;;;;;20.07;12.23;;;10.40;99.90;;;;;;21079008;28;20595;-68
2022/11/14 17:46:12;;;;;;;19.80;12.40;;;10.50;99.90;;;;;;21078096;28;20211;-72
2022/11/14 17:56:20;;;;;;;29.60;11.83;;;10.50;99.90;;;;;;21075216;28;20821;-72
2022/11/14 18:06:24;;;;;;;20.23;10.07;;;10.60;99.90;;;;;;21076612;28;20660;-74
2022/11/14 18:16:25;;;;;;;14.63;8.70;;;10.70;99.90;;;;;;21077355;28;20693;-71
2022/11/14 18:26:47;;;;;;;12.00;7.03;;;10.80;99.90;;;;;;21077797;28;20248;-71
2022/11/14 18:36:49;;;;;;;13.43;7.20;;;11.00;99.90;;;;;;21077820;28;20241;-71
2022/11/14 18:46:50;;;;;;;12.77;7.43;;;11.00;99.90;;;;;;21088793;28;20231;-72
2022/11/14 18:56:52;;;;;;;14.50;8.67;;;11.10;99.90;;;;;;21090191;28;20244;-72
2022/11/14 19:06:55;;;;;;;18.07;8.60;;;11.10;99.90;;;;;;21089837;28;20209;-72
2022/11/14 19:16:58;;;;;;;12.27;8.37;;;11.10;99.90;;;;;;21088609;28;20240;-71
2022/11/14 19:27:00;;;;;;;8.60;6.70;;;10.90;99.90;;;;;;21088003;28;20243;-71
2022/11/14 19:37:01;;;;;;;13.23;8.20;;;10.60;99.90;;;;;;21087049;28;20240;-74
2022/11/14 19:47:03;;;;;;;16.83;10.10;;;10.60;99.90;;;;;;21086371;28;20208;-71
2022/11/14 19:57:05;;;;;;;19.83;11.13;;;10.30;99.90;;;;;;21083534;28;20718;-72
2022/11/14 20:07:07;;;;;;;16.77;10.20;;;10.40;99.90;;;;;;21083654;28;20266;-71
2022/11/14 20:17:08;;;;;;;18.70;10.00;;;10.10;99.90;;;;;;21083915;28;20234;-71
2022/11/14 20:27:10;;;;;;;15.53;9.23;;;10.00;99.90;;;;;;21083272;28;20218;-72
2022/11/14 20:37:12;;;;;;;14.60;8.43;;;9.90;99.90;;;;;;21080450;28;21132;-71
2022/11/14 20:47:13;;;;;;;13.00;7.70;;;9.90;99.90;;;;;;21080697;28;20215;-71
2022/11/14 20:57:16;;;;;;;11.63;7.73;;;9.80;99.90;;;;;;21078516;28;20281;-70
2022/11/14 21:07:17;;;;;;;16.90;10.00;;;9.60;99.90;;;;;;21076788;28;20567;-72
2022/11/14 21:17:22;;;;;;;23.90;9.77;;;9.60;99.90;;;;;;21077061;28;20245;-72
2022/11/14 21:27:24;;;;;;;11.57;8.30;;;9.40;99.90;;;;;;21076749;28;20286;-72
2022/11/14 21:37:25;;;;;;;12.70;7.67;;;9.40;99.90;;;;;;21076529;28;20251;-71
2022/11/14 21:47:27;;;;;;;12.83;7.73;;;9.40;99.90;;;;;;21076067;28;20249;-72
2022/11/14 21:57:29;;;;;;;10.93;7.30;;;9.40;99.90;;;;;;21124108;28;20233;-71
2022/11/14 22:07:30;;;;;;;12.83;7.60;;;9.40;99.90;;;;;;21156267;28;20419;-71
2022/11/14 22:17:32;;;;;;;12.20;8.50;;;9.30;99.90;;;;;;21169910;28;20233;-73
2022/11/14 22:27:34;;;;;;;15.60;8.20;;;9.30;99.90;;;;;;21174837;28;20213;-73
2022/11/14 22:37:35;;;;;;;10.83;6.87;;;9.20;99.90;;;;;;21174351;28;20241;-72
2022/11/14 22:47:37;;;;;;;14.57;6.93;;;9.20;99.90;;;;;;21173145;28;20213;-71
2022/11/14 22:57:38;;;;;;;12.07;6.80;;;9.20;99.90;;;;;;21172373;28;20243;-72
2022/11/14 23:07:40;;;;;;;13.47;7.00;;;9.20;99.90;;;;;;21171936;28;20245;-72
2022/11/14 23:17:42;;;;;;;10.93;6.97;;;9.40;99.90;;;;;;21153406;28;20235;-72
2022/11/14 23:31:36;;;;;;;11.27;7.53;;;9.40;99.90;;;;;;20978514;28;20576;-72
2022/11/14 23:41:37;;;;;;;17.03;8.33;;;9.50;99.90;;;;;;20982604;28;20258;-70
2022/11/14 23:51:39;;;;;;;18.67;8.13;;;9.50;99.90;;;;;;20983433;28;20206;-70
